Sedley, Virginia
Current Conditions -  °F | °C
As of 1:15 AM on Thursday 23 Oct 2014 (Local Time) from KFKN Reporting Station
Scattered Clouds Scattered Clouds  
Wind Chill: 52°   Ceiling: Unl
Heat Index: 52°   Visibility: 10mi
Dew Point: 45°   Wind: 8mph
Humidity: 76%   Direction: 300°WNW
Pressure: 29.94"   Gusts: NA
Location:  36.78°N, 76.98°W
Report Text: KFKN 230515Z AUTO 30007KT 10SM SCT039 11/07 A2994 RMK AO1
Loading
Personal Weather Stations






























Interactive Weather Map
Tropical Storm Tracking
New forecast layout! Learn more

10-Day Weather Forecast

Advertisements
Track Severe Weather on mobile